sensor_id;sensor_type;location;lat;lon;timestamp;pressure;altitude;pressure_sealevel;temperature
18782;BMP180;9519;51.890;8.970;2022-11-23T00:00:13;97375.00;;;5.50
18782;BMP180;9519;51.890;8.970;2022-11-23T00:05:15;97354.00;;;5.60
18782;BMP180;9519;51.890;8.970;2022-11-23T00:10:17;97371.00;;;5.60
18782;BMP180;9519;51.890;8.970;2022-11-23T00:15:21;97375.00;;;5.60
18782;BMP180;9519;51.890;8.970;2022-11-23T00:20:23;97369.00;;;5.70
18782;BMP180;9519;51.890;8.970;2022-11-23T00:25:25;97355.00;;;5.70
18782;BMP180;9519;51.890;8.970;2022-11-23T00:30:28;97388.00;;;5.70
18782;BMP180;9519;51.890;8.970;2022-11-23T00:35:31;97382.00;;;5.80
18782;BMP180;9519;51.890;8.970;2022-11-23T00:40:33;97393.00;;;5.80
18782;BMP180;9519;51.890;8.970;2022-11-23T00:45:36;97387.00;;;5.90
18782;BMP180;9519;51.890;8.970;2022-11-23T00:50:38;97393.00;;;5.90
18782;BMP180;9519;51.890;8.970;2022-11-23T00:55:40;97388.00;;;5.90
18782;BMP180;9519;51.890;8.970;2022-11-23T01:00:44;97392.00;;;5.90
18782;BMP180;9519;51.890;8.970;2022-11-23T01:05:46;97381.00;;;6.00
18782;BMP180;9519;51.890;8.970;2022-11-23T01:10:48;97397.00;;;6.00
18782;BMP180;9519;51.890;8.970;2022-11-23T01:15:51;97369.00;;;6.00
18782;BMP180;9519;51.890;8.970;2022-11-23T01:20:53;97396.00;;;6.00
18782;BMP180;9519;51.890;8.970;2022-11-23T01:25:55;97390.00;;;6.00
18782;BMP180;9519;51.890;8.970;2022-11-23T01:31:05;97381.00;;;6.00
18782;BMP180;9519;51.890;8.970;2022-11-23T01:36:10;97416.00;;;6.10
18782;BMP180;9519;51.890;8.970;2022-11-23T01:41:14;97406.00;;;6.10
18782;BMP180;9519;51.890;8.970;2022-11-23T01:46:18;97415.00;;;6.10
18782;BMP180;9519;51.890;8.970;2022-11-23T01:51:26;97404.00;;;6.10
18782;BMP180;9519;51.890;8.970;2022-11-23T01:56:34;97415.00;;;6.10
18782;BMP180;9519;51.890;8.970;2022-11-23T02:01:39;97392.00;;;6.10
18782;BMP180;9519;51.890;8.970;2022-11-23T02:06:43;97419.00;;;6.10
18782;BMP180;9519;51.890;8.970;2022-11-23T02:11:47;97405.00;;;6.10
18782;BMP180;9519;51.890;8.970;2022-11-23T02:16:50;97385.00;;;6.10
18782;BMP180;9519;51.890;8.970;2022-11-23T02:21:54;97418.00;;;6.10
18782;BMP180;9519;51.890;8.970;2022-11-23T02:26:57;97413.00;;;6.20
18782;BMP180;9519;51.890;8.970;2022-11-23T02:32:00;97418.00;;;6.20
18782;BMP180;9519;51.890;8.970;2022-11-23T02:37:02;97416.00;;;6.20
18782;BMP180;9519;51.890;8.970;2022-11-23T02:42:07;97388.00;;;6.30
18782;BMP180;9519;51.890;8.970;2022-11-23T02:47:10;97422.00;;;6.30
18782;BMP180;9519;51.890;8.970;2022-11-23T02:52:13;97435.00;;;6.30
18782;BMP180;9519;51.890;8.970;2022-11-23T02:57:17;97397.00;;;6.30
18782;BMP180;9519;51.890;8.970;2022-11-23T03:02:19;97431.00;;;6.30
18782;BMP180;9519;51.890;8.970;2022-11-23T03:07:21;97417.00;;;6.30
18782;BMP180;9519;51.890;8.970;2022-11-23T03:12:24;97415.00;;;6.30
18782;BMP180;9519;51.890;8.970;2022-11-23T03:17:26;97423.00;;;6.40
18782;BMP180;9519;51.890;8.970;2022-11-23T03:22:28;97427.00;;;6.40
18782;BMP180;9519;51.890;8.970;2022-11-23T03:27:32;97409.00;;;6.40
18782;BMP180;9519;51.890;8.970;2022-11-23T03:32:34;97433.00;;;6.40
18782;BMP180;9519;51.890;8.970;2022-11-23T03:37:36;97422.00;;;6.40
18782;BMP180;9519;51.890;8.970;2022-11-23T03:42:40;97437.00;;;6.40
18782;BMP180;9519;51.890;8.970;2022-11-23T03:47:43;97443.00;;;6.50
18782;BMP180;9519;51.890;8.970;2022-11-23T03:52:47;97407.00;;;6.50
18782;BMP180;9519;51.890;8.970;2022-11-23T03:57:53;97409.00;;;6.50
18782;BMP180;9519;51.890;8.970;2022-11-23T04:02:59;97433.00;;;6.50
18782;BMP180;9519;51.890;8.970;2022-11-23T04:08:01;97441.00;;;6.50
18782;BMP180;9519;51.890;8.970;2022-11-23T04:13:04;97445.00;;;6.50
18782;BMP180;9519;51.890;8.970;2022-11-23T04:18:06;97433.00;;;6.50
18782;BMP180;9519;51.890;8.970;2022-11-23T04:23:08;97445.00;;;6.50
18782;BMP180;9519;51.890;8.970;2022-11-23T04:28:11;97430.00;;;6.50
18782;BMP180;9519;51.890;8.970;2022-11-23T04:33:14;97432.00;;;6.50
18782;BMP180;9519;51.890;8.970;2022-11-23T04:38:16;97441.00;;;6.50
18782;BMP180;9519;51.890;8.970;2022-11-23T04:43:19;97455.00;;;6.40
18782;BMP180;9519;51.890;8.970;2022-11-23T04:48:21;97446.00;;;6.40
18782;BMP180;9519;51.890;8.970;2022-11-23T04:53:23;97451.00;;;6.30
18782;BMP180;9519;51.890;8.970;2022-11-23T04:58:27;97455.00;;;6.30
18782;BMP180;9519;51.890;8.970;2022-11-23T05:03:29;97454.00;;;6.20
18782;BMP180;9519;51.890;8.970;2022-11-23T05:08:35;97457.00;;;6.10
18782;BMP180;9519;51.890;8.970;2022-11-23T05:13:39;97453.00;;;6.10
18782;BMP180;9519;51.890;8.970;2022-11-23T05:18:41;97456.00;;;6.00
18782;BMP180;9519;51.890;8.970;2022-11-23T05:23:43;97458.00;;;6.00
18782;BMP180;9519;51.890;8.970;2022-11-23T05:28:46;97457.00;;;5.90
18782;BMP180;9519;51.890;8.970;2022-11-23T05:33:48;97454.00;;;5.90
18782;BMP180;9519;51.890;8.970;2022-11-23T05:38:50;97448.00;;;5.90
18782;BMP180;9519;51.890;8.970;2022-11-23T05:43:54;97443.00;;;5.90
18782;BMP180;9519;51.890;8.970;2022-11-23T05:48:56;97451.00;;;5.80
18782;BMP180;9519;51.890;8.970;2022-11-23T05:53:58;97461.00;;;5.80
18782;BMP180;9519;51.890;8.970;2022-11-23T05:59:01;97460.00;;;5.80
18782;BMP180;9519;51.890;8.970;2022-11-23T06:04:04;97452.00;;;5.80
18782;BMP180;9519;51.890;8.970;2022-11-23T06:09:07;97468.00;;;5.80
18782;BMP180;9519;51.890;8.970;2022-11-23T06:14:10;97468.00;;;5.90
18782;BMP180;9519;51.890;8.970;2022-11-23T06:19:12;97473.00;;;5.90
18782;BMP180;9519;51.890;8.970;2022-11-23T06:24:14;97466.00;;;6.00
18782;BMP180;9519;51.890;8.970;2022-11-23T06:29:18;97470.00;;;6.00
18782;BMP180;9519;51.890;8.970;2022-11-23T06:34:20;97482.00;;;6.00
18782;BMP180;9519;51.890;8.970;2022-11-23T06:39:22;97495.00;;;6.10
18782;BMP180;9519;51.890;8.970;2022-11-23T06:44:26;97485.00;;;6.10
18782;BMP180;9519;51.890;8.970;2022-11-23T06:49:29;97505.00;;;6.20
18782;BMP180;9519;51.890;8.970;2022-11-23T06:54:31;97511.00;;;6.20
18782;BMP180;9519;51.890;8.970;2022-11-23T06:59:35;97513.00;;;6.20
18782;BMP180;9519;51.890;8.970;2022-11-23T07:04:37;97516.00;;;6.30
18782;BMP180;9519;51.890;8.970;2022-11-23T07:09:39;97531.00;;;6.30
18782;BMP180;9519;51.890;8.970;2022-11-23T07:14:42;97528.00;;;6.30
18782;BMP180;9519;51.890;8.970;2022-11-23T07:19:44;97535.00;;;6.30
18782;BMP180;9519;51.890;8.970;2022-11-23T07:24:46;97540.00;;;6.40
18782;BMP180;9519;51.890;8.970;2022-11-23T07:29:50;97502.00;;;6.30
18782;BMP180;9519;51.890;8.970;2022-11-23T07:34:54;97534.00;;;6.40
18782;BMP180;9519;51.890;8.970;2022-11-23T07:39:56;97548.00;;;6.40
18782;BMP180;9519;51.890;8.970;2022-11-23T07:45:00;97558.00;;;6.40
18782;BMP180;9519;51.890;8.970;2022-11-23T07:50:03;97564.00;;;6.50
18782;BMP180;9519;51.890;8.970;2022-11-23T07:55:06;97582.00;;;6.50
18782;BMP180;9519;51.890;8.970;2022-11-23T08:00:11;97578.00;;;6.50
18782;BMP180;9519;51.890;8.970;2022-11-23T08:05:14;97557.00;;;6.60
18782;BMP180;9519;51.890;8.970;2022-11-23T08:10:16;97575.00;;;6.60
18782;BMP180;9519;51.890;8.970;2022-11-23T08:15:20;97578.00;;;6.70
18782;BMP180;9519;51.890;8.970;2022-11-23T08:20:24;97591.00;;;6.70
18782;BMP180;9519;51.890;8.970;2022-11-23T08:25:28;97585.00;;;6.80
18782;BMP180;9519;51.890;8.970;2022-11-23T08:30:33;97588.00;;;6.80
18782;BMP180;9519;51.890;8.970;2022-11-23T08:35:37;97591.00;;;6.90
18782;BMP180;9519;51.890;8.970;2022-11-23T08:40:40;97567.00;;;6.90
18782;BMP180;9519;51.890;8.970;2022-11-23T08:45:44;97567.00;;;7.00
18782;BMP180;9519;51.890;8.970;2022-11-23T08:50:47;97572.00;;;7.00
18782;BMP180;9519;51.890;8.970;2022-11-23T08:55:49;97554.00;;;7.00
18782;BMP180;9519;51.890;8.970;2022-11-23T09:00:52;97565.00;;;7.10
18782;BMP180;9519;51.890;8.970;2022-11-23T09:05:59;97570.00;;;7.10
18782;BMP180;9519;51.890;8.970;2022-11-23T09:11:03;97597.00;;;7.20
18782;BMP180;9519;51.890;8.970;2022-11-23T09:16:08;97648.00;;;7.20
18782;BMP180;9519;51.890;8.970;2022-11-23T09:21:11;97636.00;;;7.30
18782;BMP180;9519;51.890;8.970;2022-11-23T09:26:13;97649.00;;;7.30
18782;BMP180;9519;51.890;8.970;2022-11-23T09:31:16;97642.00;;;7.40
18782;BMP180;9519;51.890;8.970;2022-11-23T09:36:19;97664.00;;;7.50
18782;BMP180;9519;51.890;8.970;2022-11-23T09:47:22;97683.00;;;7.70
18782;BMP180;9519;51.890;8.970;2022-11-23T09:52:30;97683.00;;;7.70
18782;BMP180;9519;51.890;8.970;2022-11-23T09:57:34;97680.00;;;7.80
18782;BMP180;9519;51.890;8.970;2022-11-23T10:02:40;97681.00;;;7.90
18782;BMP180;9519;51.890;8.970;2022-11-23T10:07:59;97692.00;;;8.00
18782;BMP180;9519;51.890;8.970;2022-11-23T10:13:16;97696.00;;;8.00
18782;BMP180;9519;51.890;8.970;2022-11-23T10:18:35;97695.00;;;8.10
18782;BMP180;9519;51.890;8.970;2022-11-23T10:23:51;97698.00;;;8.20
18782;BMP180;9519;51.890;8.970;2022-11-23T10:28:56;97708.00;;;8.20
18782;BMP180;9519;51.890;8.970;2022-11-23T10:34:10;97700.00;;;8.40
18782;BMP180;9519;51.890;8.970;2022-11-23T10:39:20;97695.00;;;8.40
18782;BMP180;9519;51.890;8.970;2022-11-23T10:44:30;97695.00;;;8.50
18782;BMP180;9519;51.890;8.970;2022-11-23T10:49:34;97691.00;;;8.60
18782;BMP180;9519;51.890;8.970;2022-11-23T10:54:46;97685.00;;;8.60
18782;BMP180;9519;51.890;8.970;2022-11-23T10:59:58;97687.00;;;8.70
18782;BMP180;9519;51.890;8.970;2022-11-23T11:05:31;97679.00;;;8.80
18782;BMP180;9519;51.890;8.970;2022-11-23T11:10:40;97680.00;;;8.80
18782;BMP180;9519;51.890;8.970;2022-11-23T11:15:52;97676.00;;;9.00
18782;BMP180;9519;51.890;8.970;2022-11-23T11:21:00;97684.00;;;9.00
18782;BMP180;9519;51.890;8.970;2022-11-23T11:26:08;97681.00;;;9.10
18782;BMP180;9519;51.890;8.970;2022-11-23T11:31:51;97671.00;;;9.10
18782;BMP180;9519;51.890;8.970;2022-11-23T11:37:08;97689.00;;;9.10
18782;BMP180;9519;51.890;8.970;2022-11-23T11:42:18;97691.00;;;9.20
18782;BMP180;9519;51.890;8.970;2022-11-23T11:47:30;97678.00;;;9.30
18782;BMP180;9519;51.890;8.970;2022-11-23T11:52:39;97688.00;;;9.40
18782;BMP180;9519;51.890;8.970;2022-11-23T11:57:47;97697.00;;;9.50
18782;BMP180;9519;51.890;8.970;2022-11-23T12:03:02;97687.00;;;9.60
18782;BMP180;9519;51.890;8.970;2022-11-23T12:08:12;97684.00;;;9.60
18782;BMP180;9519;51.890;8.970;2022-11-23T12:13:20;97682.00;;;9.60
18782;BMP180;9519;51.890;8.970;2022-11-23T12:24:19;97684.00;;;9.70
18782;BMP180;9519;51.890;8.970;2022-11-23T12:29:51;97683.00;;;9.60
18782;BMP180;9519;51.890;8.970;2022-11-23T12:35:47;97674.00;;;9.60
18782;BMP180;9519;51.890;8.970;2022-11-23T12:41:20;97666.00;;;9.50
18782;BMP180;9519;51.890;8.970;2022-11-23T12:46:33;97659.00;;;9.50
18782;BMP180;9519;51.890;8.970;2022-11-23T12:51:55;97659.00;;;9.40
18782;BMP180;9519;51.890;8.970;2022-11-23T12:57:12;97654.00;;;9.30
18782;BMP180;9519;51.890;8.970;2022-11-23T13:02:53;97641.00;;;9.40
18782;BMP180;9519;51.890;8.970;2022-11-23T13:08:33;97635.00;;;9.40
18782;BMP180;9519;51.890;8.970;2022-11-23T13:14:00;97631.00;;;9.40
18782;BMP180;9519;51.890;8.970;2022-11-23T13:19:30;97626.00;;;9.40
18782;BMP180;9519;51.890;8.970;2022-11-23T13:24:37;97635.00;;;9.30
18782;BMP180;9519;51.890;8.970;2022-11-23T13:29:55;97628.00;;;9.20
18782;BMP180;9519;51.890;8.970;2022-11-23T13:34:58;97631.00;;;9.10
18782;BMP180;9519;51.890;8.970;2022-11-23T13:40:03;97615.00;;;9.10
18782;BMP180;9519;51.890;8.970;2022-11-23T13:45:28;97623.00;;;9.00
18782;BMP180;9519;51.890;8.970;2022-11-23T13:50:31;97634.00;;;9.00
18782;BMP180;9519;51.890;8.970;2022-11-23T13:55:36;97622.00;;;8.80
18782;BMP180;9519;51.890;8.970;2022-11-23T14:00:49;97635.00;;;8.70
18782;BMP180;9519;51.890;8.970;2022-11-23T14:05:59;97628.00;;;8.60
18782;BMP180;9519;51.890;8.970;2022-11-23T14:11:11;97633.00;;;8.50
18782;BMP180;9519;51.890;8.970;2022-11-23T14:16:28;97634.00;;;8.40
18782;BMP180;9519;51.890;8.970;2022-11-23T14:21:43;97645.00;;;8.30
18782;BMP180;9519;51.890;8.970;2022-11-23T14:27:07;97632.00;;;8.30
18782;BMP180;9519;51.890;8.970;2022-11-23T14:32:31;97637.00;;;8.20
18782;BMP180;9519;51.890;8.970;2022-11-23T14:37:54;97639.00;;;8.10
18782;BMP180;9519;51.890;8.970;2022-11-23T14:43:00;97630.00;;;8.10
18782;BMP180;9519;51.890;8.970;2022-11-23T14:48:25;97626.00;;;8.00
18782;BMP180;9519;51.890;8.970;2022-11-23T14:53:32;97629.00;;;7.90
18782;BMP180;9519;51.890;8.970;2022-11-23T14:58:36;97621.00;;;7.80
18782;BMP180;9519;51.890;8.970;2022-11-23T15:03:39;97614.00;;;7.80
18782;BMP180;9519;51.890;8.970;2022-11-23T15:08:48;97610.00;;;7.70
18782;BMP180;9519;51.890;8.970;2022-11-23T15:13:53;97599.00;;;7.60
18782;BMP180;9519;51.890;8.970;2022-11-23T15:18:59;97583.00;;;7.50
18782;BMP180;9519;51.890;8.970;2022-11-23T15:24:01;97577.00;;;7.40
18782;BMP180;9519;51.890;8.970;2022-11-23T15:29:03;97576.00;;;7.30
18782;BMP180;9519;51.890;8.970;2022-11-23T15:34:13;97586.00;;;7.20
18782;BMP180;9519;51.890;8.970;2022-11-23T15:39:18;97589.00;;;7.10
18782;BMP180;9519;51.890;8.970;2022-11-23T15:44:24;97583.00;;;7.00
18782;BMP180;9519;51.890;8.970;2022-11-23T15:49:28;97554.00;;;6.90
18782;BMP180;9519;51.890;8.970;2022-11-23T15:54:34;97556.00;;;6.80
18782;BMP180;9519;51.890;8.970;2022-11-23T15:59:42;97572.00;;;6.70
18782;BMP180;9519;51.890;8.970;2022-11-23T16:04:46;97559.00;;;6.60
18782;BMP180;9519;51.890;8.970;2022-11-23T16:10:01;97523.00;;;6.50
18782;BMP180;9519;51.890;8.970;2022-11-23T16:15:36;97573.00;;;6.40
18782;BMP180;9519;51.890;8.970;2022-11-23T16:20:44;97590.00;;;6.20
18782;BMP180;9519;51.890;8.970;2022-11-23T16:25:55;97607.00;;;6.20
18782;BMP180;9519;51.890;8.970;2022-11-23T16:30:58;97572.00;;;6.10
18782;BMP180;9519;51.890;8.970;2022-11-23T16:36:02;97575.00;;;6.00
18782;BMP180;9519;51.890;8.970;2022-11-23T16:41:05;97583.00;;;5.90
18782;BMP180;9519;51.890;8.970;2022-11-23T16:46:08;97584.00;;;5.80
18782;BMP180;9519;51.890;8.970;2022-11-23T16:51:12;97593.00;;;5.70
18782;BMP180;9519;51.890;8.970;2022-11-23T16:56:19;97623.00;;;5.60
18782;BMP180;9519;51.890;8.970;2022-11-23T17:01:25;97621.00;;;5.50
18782;BMP180;9519;51.890;8.970;2022-11-23T17:06:29;97606.00;;;5.40
18782;BMP180;9519;51.890;8.970;2022-11-23T17:11:31;97617.00;;;5.30
18782;BMP180;9519;51.890;8.970;2022-11-23T17:16:33;97617.00;;;5.20
18782;BMP180;9519;51.890;8.970;2022-11-23T17:21:36;97610.00;;;5.10
18782;BMP180;9519;51.890;8.970;2022-11-23T17:26:44;97634.00;;;5.00
18782;BMP180;9519;51.890;8.970;2022-11-23T17:31:48;97642.00;;;4.80
18782;BMP180;9519;51.890;8.970;2022-11-23T17:36:52;97628.00;;;4.70
18782;BMP180;9519;51.890;8.970;2022-11-23T17:41:55;97636.00;;;4.70
18782;BMP180;9519;51.890;8.970;2022-11-23T17:46:59;97625.00;;;4.60
18782;BMP180;9519;51.890;8.970;2022-11-23T17:52:03;97617.00;;;4.60
18782;BMP180;9519;51.890;8.970;2022-11-23T17:57:05;97644.00;;;4.50
18782;BMP180;9519;51.890;8.970;2022-11-23T18:02:08;97656.00;;;4.50
18782;BMP180;9519;51.890;8.970;2022-11-23T18:07:14;97664.00;;;4.50
18782;BMP180;9519;51.890;8.970;2022-11-23T18:12:20;97670.00;;;4.50
18782;BMP180;9519;51.890;8.970;2022-11-23T18:17:22;97669.00;;;4.60
18782;BMP180;9519;51.890;8.970;2022-11-23T18:22:25;97674.00;;;4.70
18782;BMP180;9519;51.890;8.970;2022-11-23T18:27:27;97693.00;;;4.80
18782;BMP180;9519;51.890;8.970;2022-11-23T18:32:30;97710.00;;;5.00
18782;BMP180;9519;51.890;8.970;2022-11-23T18:37:33;97637.00;;;5.10
18782;BMP180;9519;51.890;8.970;2022-11-23T18:42:35;97738.00;;;5.10
18782;BMP180;9519;51.890;8.970;2022-11-23T18:47:37;97733.00;;;5.20
18782;BMP180;9519;51.890;8.970;2022-11-23T18:52:41;97744.00;;;5.30
18782;BMP180;9519;51.890;8.970;2022-11-23T18:57:43;97747.00;;;5.40
18782;BMP180;9519;51.890;8.970;2022-11-23T19:02:51;97756.00;;;5.40
18782;BMP180;9519;51.890;8.970;2022-11-23T19:07:58;97780.00;;;5.50
18782;BMP180;9519;51.890;8.970;2022-11-23T19:13:04;97736.00;;;5.50
18782;BMP180;9519;51.890;8.970;2022-11-23T19:18:06;97734.00;;;5.60
18782;BMP180;9519;51.890;8.970;2022-11-23T19:23:09;97741.00;;;5.60
18782;BMP180;9519;51.890;8.970;2022-11-23T19:28:11;97768.00;;;5.70
18782;BMP180;9519;51.890;8.970;2022-11-23T19:33:13;97781.00;;;5.70
18782;BMP180;9519;51.890;8.970;2022-11-23T19:38:17;97785.00;;;5.80
18782;BMP180;9519;51.890;8.970;2022-11-23T19:43:19;97805.00;;;5.80
18782;BMP180;9519;51.890;8.970;2022-11-23T19:48:21;97824.00;;;5.80
18782;BMP180;9519;51.890;8.970;2022-11-23T19:53:26;97796.00;;;5.80
18782;BMP180;9519;51.890;8.970;2022-11-23T19:58:30;97801.00;;;5.80
18782;BMP180;9519;51.890;8.970;2022-11-23T20:03:34;97813.00;;;5.80
18782;BMP180;9519;51.890;8.970;2022-11-23T20:08:37;97821.00;;;5.90
18782;BMP180;9519;51.890;8.970;2022-11-23T20:13:40;97837.00;;;5.90
18782;BMP180;9519;51.890;8.970;2022-11-23T20:18:44;97857.00;;;5.90
18782;BMP180;9519;51.890;8.970;2022-11-23T20:23:47;97844.00;;;5.90
18782;BMP180;9519;51.890;8.970;2022-11-23T20:28:52;97872.00;;;5.90
18782;BMP180;9519;51.890;8.970;2022-11-23T20:33:55;97856.00;;;5.90
18782;BMP180;9519;51.890;8.970;2022-11-23T20:39:02;97858.00;;;5.90
18782;BMP180;9519;51.890;8.970;2022-11-23T20:44:09;97872.00;;;5.90
18782;BMP180;9519;51.890;8.970;2022-11-23T20:49:11;97873.00;;;5.90
18782;BMP180;9519;51.890;8.970;2022-11-23T20:54:15;97869.00;;;6.00
18782;BMP180;9519;51.890;8.970;2022-11-23T20:59:17;97878.00;;;6.00
18782;BMP180;9519;51.890;8.970;2022-11-23T21:10:36;97896.00;;;6.00
18782;BMP180;9519;51.890;8.970;2022-11-23T21:16:03;97914.00;;;6.00
18782;BMP180;9519;51.890;8.970;2022-11-23T21:21:06;97910.00;;;6.00
18782;BMP180;9519;51.890;8.970;2022-11-23T21:26:10;97911.00;;;6.00
18782;BMP180;9519;51.890;8.970;2022-11-23T21:31:12;97919.00;;;6.00
18782;BMP180;9519;51.890;8.970;2022-11-23T21:36:15;97938.00;;;6.00
18782;BMP180;9519;51.890;8.970;2022-11-23T21:41:19;97932.00;;;6.00
18782;BMP180;9519;51.890;8.970;2022-11-23T21:46:21;97938.00;;;6.00
18782;BMP180;9519;51.890;8.970;2022-11-23T21:51:26;97966.00;;;6.00
18782;BMP180;9519;51.890;8.970;2022-11-23T21:56:32;97952.00;;;6.00
18782;BMP180;9519;51.890;8.970;2022-11-23T22:01:35;97962.00;;;6.00
18782;BMP180;9519;51.890;8.970;2022-11-23T22:06:39;97968.00;;;6.10
18782;BMP180;9519;51.890;8.970;2022-11-23T22:11:43;97954.00;;;6.10
18782;BMP180;9519;51.890;8.970;2022-11-23T22:16:47;97964.00;;;6.10
18782;BMP180;9519;51.890;8.970;2022-11-23T22:21:50;97942.00;;;6.10
18782;BMP180;9519;51.890;8.970;2022-11-23T22:26:53;97940.00;;;6.20
18782;BMP180;9519;51.890;8.970;2022-11-23T22:31:55;97966.00;;;6.20
18782;BMP180;9519;51.890;8.970;2022-11-23T22:36:57;97961.00;;;6.20
18782;BMP180;9519;51.890;8.970;2022-11-23T22:42:01;97977.00;;;6.30
18782;BMP180;9519;51.890;8.970;2022-11-23T22:47:03;97981.00;;;6.30
18782;BMP180;9519;51.890;8.970;2022-11-23T22:52:05;97991.00;;;6.40
18782;BMP180;9519;51.890;8.970;2022-11-23T22:57:09;97994.00;;;6.40
18782;BMP180;9519;51.890;8.970;2022-11-23T23:02:11;98002.00;;;6.50
18782;BMP180;9519;51.890;8.970;2022-11-23T23:07:13;98015.00;;;6.50
18782;BMP180;9519;51.890;8.970;2022-11-23T23:12:16;98021.00;;;6.50
18782;BMP180;9519;51.890;8.970;2022-11-23T23:17:18;98024.00;;;6.60
18782;BMP180;9519;51.890;8.970;2022-11-23T23:22:20;98026.00;;;6.60
18782;BMP180;9519;51.890;8.970;2022-11-23T23:27:24;98030.00;;;6.60
18782;BMP180;9519;51.890;8.970;2022-11-23T23:32:26;98033.00;;;6.60
18782;BMP180;9519;51.890;8.970;2022-11-23T23:37:28;98045.00;;;6.60
18782;BMP180;9519;51.890;8.970;2022-11-23T23:42:32;98039.00;;;6.60
18782;BMP180;9519;51.890;8.970;2022-11-23T23:47:34;98040.00;;;6.60
18782;BMP180;9519;51.890;8.970;2022-11-23T23:52:37;98040.00;;;6.60
18782;BMP180;9519;51.890;8.970;2022-11-23T23:57:40;98054.00;;;6.60
